Bloomington, IN (47403)

8:13 AM EDT on September 29, 2016 (GMT -0400)
Western Monroe County | | Change Station

Elev 961 ft 39.14 °N, 86.63 °W | Updated 2 seconds ago

Overcast
Overcast
53.1 °F
Feels Like 53.1 °F
N
0.0
Wind Variable Wind from West

Today
High -- | Low -- °F
--% Chance of Precip.
Yesterday
High -- | Low -- °F
Precip. -- in
Pressure 30.02 in
Visibility 6.0 miles
Clouds Mostly Cloudy 600 ft
Mostly Cloudy 1300 ft
Overcast 4700 ft
Dew Point 51 °F
Humidity 93%
Rainfall 0.02 in
Snow Depth Not available.
7:40 AM 7:31 PM
Waning Crescent, 2% visible
METAR KBMG 291153Z 00000KT 6SM BR BKN006 BKN013 OVC047 12/11 A3002 RMK AO2 SLP165 60002 70045 T01220111 10122 20117 53012
Pressure 30.02 in
Visibility 6.0 miles
Clouds Mostly Cloudy 600 ft
Mostly Cloudy 1300 ft
Overcast 4700 ft
Dew Point 51 °F
Humidity 93%
Rainfall 0.02 in
Snow Depth Not available.
7:40 AM 7:31 PM
Waning Crescent, 2% visible
METAR KBMG 291153Z 00000KT 6SM BR BKN006 BKN013 OVC047 12/11 A3002 RMK AO2 SLP165 60002 70045 T01220111 10122 20117 53012

10-Day Weather Forecast

Almanac

Astronomy

Sep. 29, 2016 Rise Set
Actual Time
Civil Twilight
Nautical Twilight
Astronomical Twilight
Moon
Length of Visible Light
Length of Day
Tomorrow will be .
, % of the Moon is Illuminated

Today's Extremes

State Highs State Lows

Community

WunderPhotos

Upload Photos

1,942,466 photos uploaded!

WunderBlog® & News

Nearby

Air Quality

  Air Quality AQ Index Pollutant
Not available.

Snow Depth

Station Depth Elevation

Earthquake Activity

City Distance Mag. Time & Date
Minimum magnitude displayed is 2.5.

Coastal Water Temperatures

Place Temperature

Stations

Nearby Weather Stations

Station Location Temp. Windchill Dew Point Humidity Wind Precip. Elev Updated Type
                   

Watches & Warnings

There are currently no watches in effect.